Strona główna
METAR-TAF:

METAR-TAF

Lotnisko :

Quakertown Airport

Quakertown, Pensylwania, Stany Zjednoczone

Szerokość geograficzna: 40-26-06N, Długość geograficzna: 075-22-54W, wysokość: 160 m

Aktualna obserwacja pogody

Raport powstał 7 minut temu, godzina 02:55 UTC
Wiatr 6 kt od północny zachód
Temperatura 8°C
Wilgotność 81%
Ciśnienie 1012 hPa
Widzialność: 16.1 km
Rozproszone chmury na wysokości 3000 ft
Przerywane chmury na wysokości 8500 ft

METAR: KUKT 040255Z AUTO 31006KT 10SM SCT030 BKN085 08/05 A2989 RMK A01

czas: 23:02 (03:02 UTC)


TAF: brakujący

Obserwacja i prognoza pogody dla ponad 4000 lotnisk (raport METAR i TAF).

Dostępne stacje oznaczono żółtymi i czerwonymi punktami na mapie.

Najedź kursorem aby zobaczyć nazwę stacji.

Kliknij aby zobaczyć obserwacje i prognozy pogody.

Aby zmienić mapę: kliknij na zielony przycisk z czarnym krzyżykiem, aby powiększyć; na zielony przycisk z myślnikiem, aby pomniejszyć; na zielone strzałki, aby przejść do map sąsiednich.


METAR-TAF: